Cologne, Virginia
Current Conditions -  °F | °C
As of 1:35 AM on Sunday 21 Dec 2014 (Local Time) from KFYJ Reporting Station
Overcast Overcast  
Wind Chill: 36°   Ceiling: 8000
Heat Index: 36°   Visibility: 10mi
Dew Point: 27°   Wind: 0mph
Humidity: 71%   Direction: NA
Pressure: 30.32"   Gusts: NA
Location:  37.6069°N, 76.8926°W
Report Text: KFYJ 210635Z AUTO 00000KT 10SM OVC080 02/M03 A3032 RMK AO2 T00201027
Loading
Personal Weather Stations






























Interactive Weather Map New forecast layout! Learn more

10-Day Weather Forecast

Advertisements
Track Severe Weather on mobile